sensor_id;sensor_type;location;lat;lon;timestamp;P1;durP1;ratioP1;P2;durP2;ratioP2
5945;SDS011;2998;48.206;16.394;2023-11-19T00:00:23;25.10;;;17.37;;
5945;SDS011;2998;48.206;16.394;2023-11-19T00:02:51;39.17;;;18.47;;
5945;SDS011;2998;48.206;16.394;2023-11-19T00:05:19;29.50;;;17.03;;
5945;SDS011;2998;48.206;16.394;2023-11-19T00:07:49;25.13;;;14.20;;
5945;SDS011;2998;48.206;16.394;2023-11-19T00:10:17;13.93;;;12.03;;
5945;SDS011;2998;48.206;16.394;2023-11-19T00:12:46;13.10;;;11.13;;
5945;SDS011;2998;48.206;16.394;2023-11-19T00:15:15;17.73;;;13.20;;
5945;SDS011;2998;48.206;16.394;2023-11-19T00:17:45;17.03;;;14.30;;
5945;SDS011;2998;48.206;16.394;2023-11-19T00:20:16;16.60;;;13.10;;
5945;SDS011;2998;48.206;16.394;2023-11-19T00:22:44;15.53;;;13.90;;
5945;SDS011;2998;48.206;16.394;2023-11-19T00:25:17;15.03;;;11.80;;
5945;SDS011;2998;48.206;16.394;2023-11-19T00:27:46;16.57;;;11.57;;
5945;SDS011;2998;48.206;16.394;2023-11-19T00:30:14;12.27;;;10.97;;
5945;SDS011;2998;48.206;16.394;2023-11-19T00:32:41;15.67;;;12.60;;
5945;SDS011;2998;48.206;16.394;2023-11-19T00:35:09;14.00;;;12.03;;
5945;SDS011;2998;48.206;16.394;2023-11-19T00:37:38;18.13;;;12.90;;
5945;SDS011;2998;48.206;16.394;2023-11-19T00:40:06;75.93;;;38.13;;
5945;SDS011;2998;48.206;16.394;2023-11-19T00:42:38;20.90;;;14.67;;
5945;SDS011;2998;48.206;16.394;2023-11-19T00:45:06;18.17;;;12.93;;
5945;SDS011;2998;48.206;16.394;2023-11-19T00:47:37;17.73;;;13.10;;
5945;SDS011;2998;48.206;16.394;2023-11-19T00:50:05;14.90;;;11.37;;
5945;SDS011;2998;48.206;16.394;2023-11-19T00:52:36;14.97;;;12.20;;
5945;SDS011;2998;48.206;16.394;2023-11-19T00:55:04;16.33;;;13.03;;
5945;SDS011;2998;48.206;16.394;2023-11-19T00:57:36;17.10;;;13.27;;
5945;SDS011;2998;48.206;16.394;2023-11-19T01:00:06;17.10;;;14.00;;
5945;SDS011;2998;48.206;16.394;2023-11-19T01:02:45;20.47;;;14.50;;
5945;SDS011;2998;48.206;16.394;2023-11-19T01:05:16;19.20;;;14.77;;
5945;SDS011;2998;48.206;16.394;2023-11-19T01:07:48;19.43;;;14.33;;
5945;SDS011;2998;48.206;16.394;2023-11-19T01:10:16;21.37;;;15.43;;
5945;SDS011;2998;48.206;16.394;2023-11-19T01:12:45;26.67;;;16.83;;
5945;SDS011;2998;48.206;16.394;2023-11-19T01:15:14;22.97;;;15.70;;
5945;SDS011;2998;48.206;16.394;2023-11-19T01:17:45;28.80;;;18.10;;
5945;SDS011;2998;48.206;16.394;2023-11-19T01:20:16;25.57;;;16.47;;
5945;SDS011;2998;48.206;16.394;2023-11-19T01:22:44;26.20;;;18.20;;
5945;SDS011;2998;48.206;16.394;2023-11-19T01:25:12;26.17;;;16.20;;
5945;SDS011;2998;48.206;16.394;2023-11-19T01:27:40;29.60;;;18.67;;
5945;SDS011;2998;48.206;16.394;2023-11-19T01:30:09;32.97;;;19.63;;
5945;SDS011;2998;48.206;16.394;2023-11-19T01:32:41;37.57;;;20.00;;
5945;SDS011;2998;48.206;16.394;2023-11-19T01:35:09;33.23;;;20.17;;
5945;SDS011;2998;48.206;16.394;2023-11-19T01:37:37;35.70;;;21.87;;
5945;SDS011;2998;48.206;16.394;2023-11-19T01:40:06;33.47;;;21.27;;
5945;SDS011;2998;48.206;16.394;2023-11-19T01:42:37;32.93;;;21.40;;
5945;SDS011;2998;48.206;16.394;2023-11-19T01:45:05;42.00;;;23.63;;
5945;SDS011;2998;48.206;16.394;2023-11-19T01:47:35;34.73;;;21.63;;
5945;SDS011;2998;48.206;16.394;2023-11-19T01:50:06;35.13;;;21.33;;
5945;SDS011;2998;48.206;16.394;2023-11-19T01:52:35;40.13;;;22.90;;
5945;SDS011;2998;48.206;16.394;2023-11-19T01:55:04;37.90;;;22.13;;
5945;SDS011;2998;48.206;16.394;2023-11-19T01:57:33;39.47;;;21.30;;
5945;SDS011;2998;48.206;16.394;2023-11-19T02:00:00;32.80;;;20.23;;
5945;SDS011;2998;48.206;16.394;2023-11-19T02:02:29;32.30;;;21.47;;
5945;SDS011;2998;48.206;16.394;2023-11-19T02:04:58;76.00;;;37.27;;
5945;SDS011;2998;48.206;16.394;2023-11-19T02:07:28;28.50;;;19.03;;
5945;SDS011;2998;48.206;16.394;2023-11-19T02:09:56;28.40;;;19.27;;
5945;SDS011;2998;48.206;16.394;2023-11-19T02:12:25;26.73;;;17.17;;
5945;SDS011;2998;48.206;16.394;2023-11-19T02:14:54;27.27;;;17.20;;
5945;SDS011;2998;48.206;16.394;2023-11-19T02:17:25;28.07;;;19.07;;
5945;SDS011;2998;48.206;16.394;2023-11-19T02:19:54;26.43;;;17.57;;
5945;SDS011;2998;48.206;16.394;2023-11-19T02:22:22;26.50;;;18.30;;
5945;SDS011;2998;48.206;16.394;2023-11-19T02:24:54;25.07;;;18.20;;
5945;SDS011;2998;48.206;16.394;2023-11-19T02:27:26;23.83;;;17.77;;
5945;SDS011;2998;48.206;16.394;2023-11-19T02:30:00;28.90;;;18.67;;
5945;SDS011;2998;48.206;16.394;2023-11-19T02:32:29;24.50;;;17.80;;
5945;SDS011;2998;48.206;16.394;2023-11-19T02:34:57;26.43;;;17.10;;
5945;SDS011;2998;48.206;16.394;2023-11-19T02:37:28;40.20;;;24.03;;
5945;SDS011;2998;48.206;16.394;2023-11-19T02:39:56;33.10;;;19.47;;
5945;SDS011;2998;48.206;16.394;2023-11-19T02:42:29;24.97;;;17.90;;
5945;SDS011;2998;48.206;16.394;2023-11-19T02:44:57;21.47;;;16.73;;
5945;SDS011;2998;48.206;16.394;2023-11-19T02:47:27;25.33;;;16.77;;
5945;SDS011;2998;48.206;16.394;2023-11-19T02:49:56;24.73;;;16.77;;
5945;SDS011;2998;48.206;16.394;2023-11-19T02:52:24;24.10;;;16.73;;
5945;SDS011;2998;48.206;16.394;2023-11-19T02:54:53;24.40;;;17.70;;
5945;SDS011;2998;48.206;16.394;2023-11-19T02:57:22;22.77;;;16.80;;
5945;SDS011;2998;48.206;16.394;2023-11-19T02:59:51;25.23;;;17.37;;
5945;SDS011;2998;48.206;16.394;2023-11-19T03:02:20;25.10;;;17.20;;
5945;SDS011;2998;48.206;16.394;2023-11-19T03:04:50;28.30;;;18.00;;
5945;SDS011;2998;48.206;16.394;2023-11-19T03:07:18;22.90;;;16.27;;
5945;SDS011;2998;48.206;16.394;2023-11-19T03:09:46;20.57;;;16.03;;
5945;SDS011;2998;48.206;16.394;2023-11-19T03:12:15;21.90;;;15.97;;
5945;SDS011;2998;48.206;16.394;2023-11-19T03:14:43;23.57;;;15.87;;
5945;SDS011;2998;48.206;16.394;2023-11-19T03:17:14;22.87;;;17.20;;
5945;SDS011;2998;48.206;16.394;2023-11-19T03:19:42;25.37;;;17.57;;
5945;SDS011;2998;48.206;16.394;2023-11-19T03:22:12;26.93;;;18.87;;
5945;SDS011;2998;48.206;16.394;2023-11-19T03:24:40;24.53;;;18.03;;
5945;SDS011;2998;48.206;16.394;2023-11-19T03:27:08;18.90;;;14.70;;
5945;SDS011;2998;48.206;16.394;2023-11-19T03:29:36;24.50;;;17.70;;
5945;SDS011;2998;48.206;16.394;2023-11-19T03:32:05;26.97;;;16.70;;
5945;SDS011;2998;48.206;16.394;2023-11-19T03:34:33;24.17;;;17.30;;
5945;SDS011;2998;48.206;16.394;2023-11-19T03:37:01;24.87;;;17.40;;
5945;SDS011;2998;48.206;16.394;2023-11-19T03:39:31;26.70;;;16.90;;
5945;SDS011;2998;48.206;16.394;2023-11-19T03:41:59;23.83;;;16.37;;
5945;SDS011;2998;48.206;16.394;2023-11-19T03:44:27;23.67;;;16.33;;
5945;SDS011;2998;48.206;16.394;2023-11-19T03:46:55;22.60;;;16.20;;
5945;SDS011;2998;48.206;16.394;2023-11-19T03:49:23;24.50;;;16.70;;
5945;SDS011;2998;48.206;16.394;2023-11-19T03:51:51;21.10;;;16.57;;
5945;SDS011;2998;48.206;16.394;2023-11-19T03:54:19;22.60;;;16.17;;
5945;SDS011;2998;48.206;16.394;2023-11-19T03:56:50;28.53;;;19.30;;
5945;SDS011;2998;48.206;16.394;2023-11-19T03:59:18;28.97;;;18.47;;
5945;SDS011;2998;48.206;16.394;2023-11-19T04:01:47;23.10;;;17.53;;
5945;SDS011;2998;48.206;16.394;2023-11-19T04:04:15;24.23;;;17.77;;
5945;SDS011;2998;48.206;16.394;2023-11-19T04:06:43;29.60;;;21.67;;
5945;SDS011;2998;48.206;16.394;2023-11-19T04:09:11;26.50;;;18.57;;
5945;SDS011;2998;48.206;16.394;2023-11-19T04:11:39;24.53;;;17.03;;
5945;SDS011;2998;48.206;16.394;2023-11-19T04:14:08;26.27;;;17.20;;
5945;SDS011;2998;48.206;16.394;2023-11-19T04:16:36;24.80;;;15.97;;
5945;SDS011;2998;48.206;16.394;2023-11-19T04:19:05;20.97;;;14.97;;
5945;SDS011;2998;48.206;16.394;2023-11-19T04:21:33;24.20;;;15.80;;
5945;SDS011;2998;48.206;16.394;2023-11-19T04:24:01;22.93;;;15.57;;
5945;SDS011;2998;48.206;16.394;2023-11-19T04:26:29;20.77;;;15.20;;
5945;SDS011;2998;48.206;16.394;2023-11-19T04:28:58;20.13;;;15.03;;
5945;SDS011;2998;48.206;16.394;2023-11-19T04:31:30;24.20;;;15.50;;
5945;SDS011;2998;48.206;16.394;2023-11-19T04:33:59;21.20;;;15.77;;
5945;SDS011;2998;48.206;16.394;2023-11-19T04:36:27;20.70;;;16.50;;
5945;SDS011;2998;48.206;16.394;2023-11-19T04:38:56;30.10;;;19.93;;
5945;SDS011;2998;48.206;16.394;2023-11-19T04:41:24;26.63;;;20.40;;
5945;SDS011;2998;48.206;16.394;2023-11-19T04:43:52;29.43;;;20.40;;
5945;SDS011;2998;48.206;16.394;2023-11-19T04:46:19;30.13;;;21.10;;
5945;SDS011;2998;48.206;16.394;2023-11-19T04:48:49;29.43;;;20.80;;
5945;SDS011;2998;48.206;16.394;2023-11-19T04:51:17;32.70;;;20.13;;
5945;SDS011;2998;48.206;16.394;2023-11-19T04:53:45;25.80;;;17.53;;
5945;SDS011;2998;48.206;16.394;2023-11-19T04:56:13;30.73;;;20.30;;
5945;SDS011;2998;48.206;16.394;2023-11-19T04:58:43;34.37;;;21.87;;
5945;SDS011;2998;48.206;16.394;2023-11-19T05:01:13;33.10;;;21.43;;
5945;SDS011;2998;48.206;16.394;2023-11-19T05:03:42;26.10;;;18.50;;
5945;SDS011;2998;48.206;16.394;2023-11-19T05:06:11;22.97;;;15.77;;
5945;SDS011;2998;48.206;16.394;2023-11-19T05:08:39;25.57;;;16.77;;
5945;SDS011;2998;48.206;16.394;2023-11-19T05:11:07;26.03;;;18.17;;
5945;SDS011;2998;48.206;16.394;2023-11-19T05:13:38;24.13;;;16.77;;
5945;SDS011;2998;48.206;16.394;2023-11-19T05:16:06;25.50;;;18.10;;
5945;SDS011;2998;48.206;16.394;2023-11-19T05:18:36;22.30;;;16.77;;
5945;SDS011;2998;48.206;16.394;2023-11-19T05:21:07;24.87;;;15.60;;
5945;SDS011;2998;48.206;16.394;2023-11-19T05:23:36;21.13;;;15.53;;
5945;SDS011;2998;48.206;16.394;2023-11-19T05:26:05;19.30;;;14.77;;
5945;SDS011;2998;48.206;16.394;2023-11-19T05:28:34;18.37;;;14.10;;
5945;SDS011;2998;48.206;16.394;2023-11-19T05:31:02;21.47;;;16.03;;
5945;SDS011;2998;48.206;16.394;2023-11-19T05:33:30;23.93;;;17.83;;
5945;SDS011;2998;48.206;16.394;2023-11-19T05:35:58;20.40;;;15.80;;
5945;SDS011;2998;48.206;16.394;2023-11-19T05:38:26;19.00;;;15.67;;
5945;SDS011;2998;48.206;16.394;2023-11-19T05:40:56;22.00;;;15.70;;
5945;SDS011;2998;48.206;16.394;2023-11-19T05:43:24;33.83;;;18.43;;
5945;SDS011;2998;48.206;16.394;2023-11-19T05:45:52;20.93;;;15.87;;
5945;SDS011;2998;48.206;16.394;2023-11-19T05:48:20;24.60;;;16.80;;
5945;SDS011;2998;48.206;16.394;2023-11-19T05:50:49;21.40;;;15.27;;
5945;SDS011;2998;48.206;16.394;2023-11-19T05:53:17;20.30;;;14.23;;
5945;SDS011;2998;48.206;16.394;2023-11-19T05:55:45;20.67;;;14.50;;
5945;SDS011;2998;48.206;16.394;2023-11-19T05:58:23;26.40;;;16.90;;
5945;SDS011;2998;48.206;16.394;2023-11-19T06:00:55;20.30;;;16.10;;
5945;SDS011;2998;48.206;16.394;2023-11-19T06:03:23;19.80;;;14.37;;
5945;SDS011;2998;48.206;16.394;2023-11-19T06:05:51;22.33;;;15.60;;
5945;SDS011;2998;48.206;16.394;2023-11-19T06:08:20;21.80;;;15.50;;
5945;SDS011;2998;48.206;16.394;2023-11-19T06:10:48;24.17;;;16.77;;
5945;SDS011;2998;48.206;16.394;2023-11-19T06:13:18;24.97;;;17.53;;
5945;SDS011;2998;48.206;16.394;2023-11-19T06:15:51;26.57;;;18.03;;
5945;SDS011;2998;48.206;16.394;2023-11-19T06:18:19;27.50;;;16.87;;
5945;SDS011;2998;48.206;16.394;2023-11-19T06:20:47;20.40;;;14.90;;
5945;SDS011;2998;48.206;16.394;2023-11-19T06:23:16;21.77;;;16.93;;
5945;SDS011;2998;48.206;16.394;2023-11-19T06:25:44;26.60;;;18.50;;
5945;SDS011;2998;48.206;16.394;2023-11-19T06:28:12;18.47;;;13.80;;
5945;SDS011;2998;48.206;16.394;2023-11-19T06:30:40;17.97;;;13.93;;
5945;SDS011;2998;48.206;16.394;2023-11-19T06:33:13;17.17;;;14.00;;
5945;SDS011;2998;48.206;16.394;2023-11-19T06:35:42;19.70;;;14.27;;
5945;SDS011;2998;48.206;16.394;2023-11-19T06:38:10;22.27;;;15.30;;
5945;SDS011;2998;48.206;16.394;2023-11-19T06:40:38;18.53;;;13.57;;
5945;SDS011;2998;48.206;16.394;2023-11-19T06:43:07;17.30;;;13.77;;
5945;SDS011;2998;48.206;16.394;2023-11-19T06:45:36;17.60;;;12.83;;
5945;SDS011;2998;48.206;16.394;2023-11-19T06:48:04;22.33;;;15.53;;
5945;SDS011;2998;48.206;16.394;2023-11-19T06:50:34;27.77;;;18.17;;
5945;SDS011;2998;48.206;16.394;2023-11-19T06:53:02;27.60;;;17.07;;
5945;SDS011;2998;48.206;16.394;2023-11-19T06:55:31;27.10;;;17.13;;
5945;SDS011;2998;48.206;16.394;2023-11-19T06:57:59;22.50;;;14.73;;
5945;SDS011;2998;48.206;16.394;2023-11-19T07:00:27;23.70;;;16.83;;
5945;SDS011;2998;48.206;16.394;2023-11-19T07:02:55;20.80;;;14.03;;
5945;SDS011;2998;48.206;16.394;2023-11-19T07:05:23;22.53;;;14.77;;
5945;SDS011;2998;48.206;16.394;2023-11-19T07:07:52;24.40;;;17.03;;
5945;SDS011;2998;48.206;16.394;2023-11-19T07:10:21;22.80;;;16.23;;
5945;SDS011;2998;48.206;16.394;2023-11-19T07:12:49;23.90;;;17.50;;
5945;SDS011;2998;48.206;16.394;2023-11-19T07:15:17;22.93;;;14.90;;
5945;SDS011;2998;48.206;16.394;2023-11-19T07:17:45;19.73;;;13.27;;
5945;SDS011;2998;48.206;16.394;2023-11-19T07:20:26;15.27;;;11.30;;
5945;SDS011;2998;48.206;16.394;2023-11-19T07:22:56;15.30;;;11.80;;
5945;SDS011;2998;48.206;16.394;2023-11-19T07:25:24;19.63;;;13.20;;
5945;SDS011;2998;48.206;16.394;2023-11-19T07:27:53;18.53;;;13.73;;
5945;SDS011;2998;48.206;16.394;2023-11-19T07:30:21;18.80;;;13.77;;
5945;SDS011;2998;48.206;16.394;2023-11-19T07:32:48;16.33;;;12.33;;
5945;SDS011;2998;48.206;16.394;2023-11-19T07:35:17;17.20;;;11.53;;
5945;SDS011;2998;48.206;16.394;2023-11-19T07:37:45;14.87;;;10.20;;
5945;SDS011;2998;48.206;16.394;2023-11-19T07:40:15;10.90;;;9.00;;
5945;SDS011;2998;48.206;16.394;2023-11-19T07:42:43;10.37;;;8.33;;
5945;SDS011;2998;48.206;16.394;2023-11-19T07:45:11;9.53;;;8.53;;
5945;SDS011;2998;48.206;16.394;2023-11-19T07:47:39;8.93;;;8.03;;
5945;SDS011;2998;48.206;16.394;2023-11-19T07:50:08;13.00;;;10.87;;
5945;SDS011;2998;48.206;16.394;2023-11-19T07:52:36;12.10;;;9.50;;
5945;SDS011;2998;48.206;16.394;2023-11-19T07:55:05;10.47;;;8.97;;
5945;SDS011;2998;48.206;16.394;2023-11-19T07:57:34;10.87;;;8.73;;
5945;SDS011;2998;48.206;16.394;2023-11-19T08:00:03;11.87;;;9.50;;
5945;SDS011;2998;48.206;16.394;2023-11-19T08:02:33;16.77;;;13.67;;
5945;SDS011;2998;48.206;16.394;2023-11-19T08:05:01;17.60;;;12.87;;
5945;SDS011;2998;48.206;16.394;2023-11-19T08:07:29;18.20;;;10.73;;
5945;SDS011;2998;48.206;16.394;2023-11-19T08:09:57;12.33;;;10.20;;
5945;SDS011;2998;48.206;16.394;2023-11-19T08:12:26;14.13;;;10.70;;
5945;SDS011;2998;48.206;16.394;2023-11-19T08:14:55;34.93;;;19.80;;
5945;SDS011;2998;48.206;16.394;2023-11-19T08:17:24;14.80;;;10.50;;
5945;SDS011;2998;48.206;16.394;2023-11-19T08:19:53;6.27;;;5.70;;
5945;SDS011;2998;48.206;16.394;2023-11-19T08:22:21;45.57;;;27.57;;
5945;SDS011;2998;48.206;16.394;2023-11-19T08:24:49;9.37;;;8.47;;
5945;SDS011;2998;48.206;16.394;2023-11-19T08:27:17;19.47;;;16.47;;
5945;SDS011;2998;48.206;16.394;2023-11-19T08:29:45;12.60;;;9.53;;
5945;SDS011;2998;48.206;16.394;2023-11-19T08:32:14;12.60;;;11.20;;
5945;SDS011;2998;48.206;16.394;2023-11-19T08:34:42;15.70;;;8.83;;
5945;SDS011;2998;48.206;16.394;2023-11-19T08:37:10;10.07;;;9.03;;
5945;SDS011;2998;48.206;16.394;2023-11-19T08:39:39;8.70;;;7.80;;
5945;SDS011;2998;48.206;16.394;2023-11-19T08:42:08;30.90;;;20.33;;
5945;SDS011;2998;48.206;16.394;2023-11-19T08:44:36;19.33;;;12.20;;
5945;SDS011;2998;48.206;16.394;2023-11-19T08:47:04;8.27;;;6.63;;
5945;SDS011;2998;48.206;16.394;2023-11-19T08:49:34;12.13;;;9.20;;
5945;SDS011;2998;48.206;16.394;2023-11-19T08:52:02;12.57;;;9.50;;
5945;SDS011;2998;48.206;16.394;2023-11-19T08:54:30;8.53;;;7.73;;
5945;SDS011;2998;48.206;16.394;2023-11-19T08:56:59;14.67;;;10.20;;
5945;SDS011;2998;48.206;16.394;2023-11-19T08:59:29;11.20;;;9.30;;
5945;SDS011;2998;48.206;16.394;2023-11-19T09:01:57;13.27;;;9.60;;
5945;SDS011;2998;48.206;16.394;2023-11-19T09:04:25;8.73;;;7.70;;
5945;SDS011;2998;48.206;16.394;2023-11-19T09:06:57;9.03;;;7.30;;
5945;SDS011;2998;48.206;16.394;2023-11-19T09:09:25;6.87;;;6.17;;
5945;SDS011;2998;48.206;16.394;2023-11-19T09:11:53;6.93;;;6.00;;
5945;SDS011;2998;48.206;16.394;2023-11-19T09:14:21;7.80;;;7.10;;
5945;SDS011;2998;48.206;16.394;2023-11-19T09:16:52;12.10;;;8.20;;
5945;SDS011;2998;48.206;16.394;2023-11-19T09:19:20;6.77;;;5.90;;
5945;SDS011;2998;48.206;16.394;2023-11-19T09:21:48;6.77;;;5.90;;
5945;SDS011;2998;48.206;16.394;2023-11-19T09:24:17;85.20;;;43.97;;
5945;SDS011;2998;48.206;16.394;2023-11-19T09:26:45;3.90;;;3.40;;
5945;SDS011;2998;48.206;16.394;2023-11-19T09:29:13;15.70;;;11.33;;
5945;SDS011;2998;48.206;16.394;2023-11-19T09:31:43;11.80;;;9.13;;
5945;SDS011;2998;48.206;16.394;2023-11-19T09:34:11;9.70;;;8.70;;
5945;SDS011;2998;48.206;16.394;2023-11-19T09:36:39;7.13;;;5.67;;
5945;SDS011;2998;48.206;16.394;2023-11-19T09:39:10;6.03;;;5.30;;
5945;SDS011;2998;48.206;16.394;2023-11-19T09:41:40;1.67;;;1.57;;
5945;SDS011;2998;48.206;16.394;2023-11-19T09:44:08;5.00;;;4.10;;
5945;SDS011;2998;48.206;16.394;2023-11-19T09:46:38;0.90;;;0.90;;
5945;SDS011;2998;48.206;16.394;2023-11-19T09:49:06;0.70;;;0.70;;
5945;SDS011;2998;48.206;16.394;2023-11-19T09:51:35;2.53;;;2.33;;
5945;SDS011;2998;48.206;16.394;2023-11-19T09:54:04;1.57;;;1.47;;
5945;SDS011;2998;48.206;16.394;2023-11-19T09:56:32;1.27;;;1.17;;
5945;SDS011;2998;48.206;16.394;2023-11-19T09:59:02;0.87;;;0.87;;
5945;SDS011;2998;48.206;16.394;2023-11-19T10:01:30;1.37;;;1.27;;
5945;SDS011;2998;48.206;16.394;2023-11-19T10:03:59;0.97;;;0.97;;
5945;SDS011;2998;48.206;16.394;2023-11-19T10:06:28;2.57;;;2.47;;
5945;SDS011;2998;48.206;16.394;2023-11-19T10:08:56;0.87;;;0.87;;
5945;SDS011;2998;48.206;16.394;2023-11-19T10:11:26;2.63;;;1.77;;
5945;SDS011;2998;48.206;16.394;2023-11-19T10:13:54;8.30;;;4.07;;
5945;SDS011;2998;48.206;16.394;2023-11-19T10:16:27;10.33;;;4.00;;
5945;SDS011;2998;48.206;16.394;2023-11-19T10:18:57;6.83;;;2.63;;
5945;SDS011;2998;48.206;16.394;2023-11-19T10:21:25;1.97;;;1.87;;
5945;SDS011;2998;48.206;16.394;2023-11-19T10:23:55;4.87;;;4.50;;
5945;SDS011;2998;48.206;16.394;2023-11-19T10:26:26;1.23;;;1.20;;
5945;SDS011;2998;48.206;16.394;2023-11-19T10:28:55;1.07;;;1.07;;
5945;SDS011;2998;48.206;16.394;2023-11-19T10:31:25;1.00;;;1.00;;
5945;SDS011;2998;48.206;16.394;2023-11-19T10:33:53;1.67;;;1.57;;
5945;SDS011;2998;48.206;16.394;2023-11-19T10:36:21;1.70;;;1.60;;
5945;SDS011;2998;48.206;16.394;2023-11-19T10:38:51;1.47;;;1.37;;
5945;SDS011;2998;48.206;16.394;2023-11-19T10:41:29;1.53;;;1.00;;
5945;SDS011;2998;48.206;16.394;2023-11-19T10:43:58;1.97;;;1.87;;
5945;SDS011;2998;48.206;16.394;2023-11-19T10:46:37;2.53;;;2.43;;
5945;SDS011;2998;48.206;16.394;2023-11-19T10:49:07;1.13;;;1.10;;
5945;SDS011;2998;48.206;16.394;2023-11-19T10:51:36;1.40;;;1.40;;
5945;SDS011;2998;48.206;16.394;2023-11-19T10:54:04;0.77;;;0.77;;
5945;SDS011;2998;48.206;16.394;2023-11-19T10:56:34;0.83;;;0.83;;
5945;SDS011;2998;48.206;16.394;2023-11-19T10:59:02;0.70;;;0.70;;
5945;SDS011;2998;48.206;16.394;2023-11-19T11:01:50;0.90;;;0.90;;
5945;SDS011;2998;48.206;16.394;2023-11-19T11:04:22;1.47;;;1.37;;
5945;SDS011;2998;48.206;16.394;2023-11-19T11:06:51;1.30;;;1.20;;
5945;SDS011;2998;48.206;16.394;2023-11-19T11:09:21;1.43;;;1.33;;
5945;SDS011;2998;48.206;16.394;2023-11-19T11:11:50;1.40;;;1.30;;
5945;SDS011;2998;48.206;16.394;2023-11-19T11:14:19;1.67;;;1.00;;
5945;SDS011;2998;48.206;16.394;2023-11-19T11:16:49;1.17;;;1.13;;
5945;SDS011;2998;48.206;16.394;2023-11-19T11:19:18;1.23;;;1.13;;
5945;SDS011;2998;48.206;16.394;2023-11-19T11:21:46;1.37;;;1.13;;
5945;SDS011;2998;48.206;16.394;2023-11-19T11:24:28;1.77;;;1.50;;
5945;SDS011;2998;48.206;16.394;2023-11-19T11:30:02;1.90;;;1.80;;
5945;SDS011;2998;48.206;16.394;2023-11-19T11:32:41;1.77;;;1.67;;
5945;SDS011;2998;48.206;16.394;2023-11-19T11:35:17;2.53;;;2.33;;
5945;SDS011;2998;48.206;16.394;2023-11-19T11:37:53;2.43;;;2.23;;
5945;SDS011;2998;48.206;16.394;2023-11-19T11:40:26;1.73;;;1.63;;
5945;SDS011;2998;48.206;16.394;2023-11-19T11:42:55;11.60;;;2.03;;
5945;SDS011;2998;48.206;16.394;2023-11-19T11:45:34;2.30;;;2.10;;
5945;SDS011;2998;48.206;16.394;2023-11-19T11:48:09;1.73;;;1.63;;
5945;SDS011;2998;48.206;16.394;2023-11-19T11:50:47;1.30;;;1.20;;
5945;SDS011;2998;48.206;16.394;2023-11-19T11:53:17;2.07;;;1.97;;
5945;SDS011;2998;48.206;16.394;2023-11-19T11:55:55;5.57;;;1.40;;
5945;SDS011;2998;48.206;16.394;2023-11-19T11:58:27;2.40;;;1.30;;
5945;SDS011;2998;48.206;16.394;2023-11-19T12:00:59;1.37;;;1.27;;
5945;SDS011;2998;48.206;16.394;2023-11-19T12:03:31;6.30;;;1.77;;
5945;SDS011;2998;48.206;16.394;2023-11-19T12:06:00;2.77;;;2.57;;
5945;SDS011;2998;48.206;16.394;2023-11-19T12:08:31;1.20;;;1.10;;
5945;SDS011;2998;48.206;16.394;2023-11-19T12:11:19;1.60;;;1.50;;
5945;SDS011;2998;48.206;16.394;2023-11-19T12:13:54;1.87;;;1.77;;
5945;SDS011;2998;48.206;16.394;2023-11-19T12:16:25;1.40;;;1.30;;
5945;SDS011;2998;48.206;16.394;2023-11-19T12:18:56;1.40;;;1.30;;
5945;SDS011;2998;48.206;16.394;2023-11-19T12:21:27;0.83;;;0.83;;
5945;SDS011;2998;48.206;16.394;2023-11-19T12:23:57;1.00;;;1.00;;
5945;SDS011;2998;48.206;16.394;2023-11-19T12:26:34;0.93;;;0.93;;
5945;SDS011;2998;48.206;16.394;2023-11-19T12:29:04;1.03;;;0.93;;
5945;SDS011;2998;48.206;16.394;2023-11-19T12:31:35;0.57;;;0.57;;
5945;SDS011;2998;48.206;16.394;2023-11-19T12:34:10;0.70;;;0.70;;
5945;SDS011;2998;48.206;16.394;2023-11-19T12:36:40;0.60;;;0.60;;
5945;SDS011;2998;48.206;16.394;2023-11-19T12:39:11;0.67;;;0.67;;
5945;SDS011;2998;48.206;16.394;2023-11-19T12:41:53;0.67;;;0.50;;
5945;SDS011;2998;48.206;16.394;2023-11-19T12:44:21;0.70;;;0.70;;
5945;SDS011;2998;48.206;16.394;2023-11-19T12:46:59;0.67;;;0.67;;
5945;SDS011;2998;48.206;16.394;2023-11-19T12:49:32;0.70;;;0.70;;
5945;SDS011;2998;48.206;16.394;2023-11-19T12:52:01;0.63;;;0.60;;
5945;SDS011;2998;48.206;16.394;2023-11-19T12:54:34;0.80;;;0.80;;
5945;SDS011;2998;48.206;16.394;2023-11-19T12:57:03;0.70;;;0.70;;
5945;SDS011;2998;48.206;16.394;2023-11-19T12:59:32;4.60;;;1.53;;
5945;SDS011;2998;48.206;16.394;2023-11-19T13:02:00;1.10;;;1.00;;
5945;SDS011;2998;48.206;16.394;2023-11-19T13:04:29;0.70;;;0.70;;
5945;SDS011;2998;48.206;16.394;2023-11-19T13:06:59;1.03;;;1.03;;
5945;SDS011;2998;48.206;16.394;2023-11-19T13:09:31;0.77;;;0.77;;
5945;SDS011;2998;48.206;16.394;2023-11-19T13:12:00;2.93;;;0.70;;
5945;SDS011;2998;48.206;16.394;2023-11-19T13:14:39;1.93;;;1.10;;
5945;SDS011;2998;48.206;16.394;2023-11-19T13:17:09;0.90;;;0.90;;
5945;SDS011;2998;48.206;16.394;2023-11-19T13:19:40;0.67;;;0.67;;
5945;SDS011;2998;48.206;16.394;2023-11-19T13:22:10;0.87;;;0.87;;
5945;SDS011;2998;48.206;16.394;2023-11-19T13:24:38;1.53;;;1.43;;
5945;SDS011;2998;48.206;16.394;2023-11-19T13:27:07;1.80;;;1.70;;
5945;SDS011;2998;48.206;16.394;2023-11-19T13:29:35;1.33;;;1.23;;
5945;SDS011;2998;48.206;16.394;2023-11-19T13:32:03;1.83;;;1.10;;
5945;SDS011;2998;48.206;16.394;2023-11-19T13:34:32;0.73;;;0.73;;
5945;SDS011;2998;48.206;16.394;2023-11-19T13:37:01;0.83;;;0.83;;
5945;SDS011;2998;48.206;16.394;2023-11-19T13:39:32;1.00;;;1.00;;
5945;SDS011;2998;48.206;16.394;2023-11-19T13:42:00;0.93;;;0.93;;
5945;SDS011;2998;48.206;16.394;2023-11-19T13:44:31;1.30;;;0.90;;
5945;SDS011;2998;48.206;16.394;2023-11-19T13:46:59;1.43;;;1.33;;
5945;SDS011;2998;48.206;16.394;2023-11-19T13:49:27;1.40;;;1.30;;
5945;SDS011;2998;48.206;16.394;2023-11-19T13:51:55;1.00;;;1.00;;
5945;SDS011;2998;48.206;16.394;2023-11-19T13:54:23;1.20;;;0.70;;
5945;SDS011;2998;48.206;16.394;2023-11-19T13:56:55;1.20;;;1.10;;
5945;SDS011;2998;48.206;16.394;2023-11-19T13:59:24;1.57;;;1.47;;
5945;SDS011;2998;48.206;16.394;2023-11-19T14:01:53;1.70;;;1.17;;
5945;SDS011;2998;48.206;16.394;2023-11-19T14:04:21;1.47;;;1.37;;
5945;SDS011;2998;48.206;16.394;2023-11-19T14:06:49;3.40;;;1.00;;
5945;SDS011;2998;48.206;16.394;2023-11-19T14:09:17;1.37;;;1.33;;
5945;SDS011;2998;48.206;16.394;2023-11-19T14:11:45;2.00;;;1.90;;
5945;SDS011;2998;48.206;16.394;2023-11-19T14:14:14;0.73;;;0.73;;
5945;SDS011;2998;48.206;16.394;2023-11-19T14:16:42;1.20;;;1.20;;
5945;SDS011;2998;48.206;16.394;2023-11-19T14:19:11;1.30;;;1.20;;
5945;SDS011;2998;48.206;16.394;2023-11-19T14:21:40;2.47;;;2.37;;
5945;SDS011;2998;48.206;16.394;2023-11-19T14:24:08;1.90;;;1.80;;
5945;SDS011;2998;48.206;16.394;2023-11-19T14:26:36;1.90;;;1.80;;
5945;SDS011;2998;48.206;16.394;2023-11-19T14:29:04;3.43;;;1.40;;
5945;SDS011;2998;48.206;16.394;2023-11-19T14:31:33;1.97;;;1.77;;
5945;SDS011;2998;48.206;16.394;2023-11-19T14:34:02;0.90;;;0.90;;
5945;SDS011;2998;48.206;16.394;2023-11-19T14:36:30;1.40;;;1.30;;
5945;SDS011;2998;48.206;16.394;2023-11-19T14:38:58;1.10;;;1.10;;
5945;SDS011;2998;48.206;16.394;2023-11-19T14:41:26;0.90;;;0.90;;
5945;SDS011;2998;48.206;16.394;2023-11-19T14:43:54;2.03;;;1.93;;
5945;SDS011;2998;48.206;16.394;2023-11-19T14:46:22;1.27;;;0.90;;
5945;SDS011;2998;48.206;16.394;2023-11-19T14:48:51;1.67;;;1.10;;
5945;SDS011;2998;48.206;16.394;2023-11-19T14:51:19;0.70;;;0.70;;
5945;SDS011;2998;48.206;16.394;2023-11-19T14:53:47;0.80;;;0.80;;
5945;SDS011;2998;48.206;16.394;2023-11-19T14:56:15;3.57;;;1.23;;
5945;SDS011;2998;48.206;16.394;2023-11-19T14:58:43;1.27;;;0.60;;
5945;SDS011;2998;48.206;16.394;2023-11-19T15:01:11;1.13;;;1.00;;